createdAt,value
2023-01-11T00:00:27.036Z,100444.09
2023-01-11T00:01:31.224Z,100439.41
2023-01-11T00:02:34.359Z,100432.69
2023-01-11T00:03:37.084Z,100436.97
2023-01-11T00:04:38.651Z,100433.53
2023-01-11T00:05:42.030Z,100424.50
2023-01-11T00:06:43.953Z,100432.84
2023-01-11T00:07:46.411Z,100424.69
2023-01-11T00:08:47.906Z,100434.75
2023-01-11T00:09:50.392Z,100417.66
2023-01-11T00:10:51.918Z,100416.81
2023-01-11T00:11:55.112Z,100418.31
2023-01-11T00:12:57.948Z,100422.16
2023-01-11T00:14:00.432Z,100423.66
2023-01-11T00:15:01.954Z,100420.28
2023-01-11T00:16:08.009Z,100416.63
2023-01-11T00:17:09.565Z,100410.31
2023-01-11T00:18:12.119Z,100410.53
2023-01-11T00:19:13.765Z,100405.91
2023-01-11T00:20:17.621Z,100402.50
2023-01-11T00:21:19.232Z,100405.25
2023-01-11T00:22:22.194Z,100414.59
2023-01-11T00:23:23.777Z,100393.56
2023-01-11T00:24:26.174Z,100396.84
2023-01-11T00:25:27.909Z,100395.91
2023-01-11T00:26:30.372Z,100392.59
2023-01-11T00:27:32.024Z,100397.19
2023-01-11T00:28:35.873Z,100399.28
2023-01-11T00:29:37.383Z,100395.31
2023-01-11T00:30:39.811Z,100388.38
2023-01-11T00:31:41.324Z,100388.63
2023-01-11T00:32:43.921Z,100396.16
2023-01-11T00:33:46.377Z,100392.06
2023-01-11T00:34:47.854Z,100382.47
2023-01-11T00:35:52.407Z,100375.78
2023-01-11T00:36:53.883Z,100385.47
2023-01-11T00:37:56.400Z,100385.53
2023-01-11T00:38:57.837Z,100373.00
2023-01-11T00:40:00.275Z,100381.34
2023-01-11T00:41:21.875Z,100375.69
2023-01-11T00:42:42.157Z,100379.06
2023-01-11T00:44:03.867Z,100366.94
2023-01-11T00:45:25.244Z,100382.25
2023-01-11T00:46:56.490Z,100363.66
2023-01-11T00:48:00.421Z,100375.78
2023-01-11T00:49:01.936Z,100375.16
2023-01-11T00:50:04.701Z,100367.38
2023-01-11T00:51:06.188Z,100382.94
2023-01-11T00:52:09.962Z,100376.69
2023-01-11T00:53:11.671Z,100375.16
2023-01-11T00:54:14.338Z,100378.47
2023-01-11T00:55:15.921Z,100381.69
2023-01-11T00:56:18.361Z,100364.91
2023-01-11T00:57:20.137Z,100367.59
2023-01-11T00:58:22.753Z,100359.50
2023-01-11T00:59:25.596Z,100363.97
2023-01-11T01:00:29.566Z,100359.81
2023-01-11T01:01:31.657Z,100360.78
2023-01-11T01:02:34.408Z,100349.41
2023-01-11T01:03:36.846Z,100362.44
2023-01-11T01:04:39.348Z,100356.38
2023-01-11T01:05:41.811Z,100354.22
2023-01-11T01:06:43.417Z,100353.25
2023-01-11T01:07:46.325Z,100355.47
2023-01-11T01:08:47.821Z,100347.84
2023-01-11T01:09:50.275Z,100347.53
2023-01-11T01:10:52.234Z,100353.56
2023-01-11T01:11:54.719Z,100356.50
2023-01-11T01:13:14.869Z,100354.72
2023-01-11T01:14:34.405Z,100355.03
2023-01-11T01:15:38.204Z,100365.22
2023-01-11T01:16:40.021Z,100361.34
2023-01-11T01:17:42.448Z,100363.81
2023-01-11T01:18:44.906Z,100350.97
2023-01-11T01:19:46.685Z,100354.13
2023-01-11T01:20:51.098Z,100355.03
2023-01-11T01:21:52.573Z,100361.34
2023-01-11T01:22:55.037Z,100361.41
2023-01-11T01:23:57.221Z,100340.63
2023-01-11T01:24:59.670Z,100355.28
2023-01-11T01:26:02.967Z,100352.25
2023-01-11T01:27:05.421Z,100350.38
2023-01-11T01:28:06.933Z,100355.22
2023-01-11T01:29:09.756Z,100352.50
2023-01-11T01:30:11.796Z,100349.16
2023-01-11T01:31:15.546Z,100344.34
2023-01-11T01:32:17.079Z,100330.09
2023-01-11T01:33:19.494Z,100335.00
2023-01-11T01:34:20.951Z,100334.63
2023-01-11T01:35:23.392Z,100333.09
2023-01-11T01:36:25.039Z,100342.53
2023-01-11T01:37:27.791Z,100344.75
2023-01-11T01:38:29.338Z,100334.47
2023-01-11T01:39:31.884Z,100334.06
2023-01-11T01:40:33.398Z,100320.38
2023-01-11T01:41:36.524Z,100336.91
2023-01-11T01:42:38.048Z,100332.50
2023-01-11T01:43:50.289Z,100335.88
2023-01-11T01:45:00.905Z,100331.25
2023-01-11T01:46:03.408Z,100333.75
2023-01-11T01:47:06.248Z,100337.28
2023-01-11T01:48:12.293Z,100332.25
2023-01-11T01:49:16.251Z,100339.47
2023-01-11T01:50:22.415Z,100348.44
2023-01-11T01:51:28.474Z,100341.59
2023-01-11T01:52:33.045Z,100343.31
2023-01-11T01:53:37.379Z,100351.84
2023-01-11T01:54:43.536Z,100341.09
2023-01-11T01:55:49.877Z,100347.47
2023-01-11T01:56:54.669Z,100329.50
2023-01-11T01:57:59.203Z,100344.19
2023-01-11T01:59:04.563Z,100330.59
2023-01-11T02:00:09.722Z,100332.63
2023-01-11T02:01:31.955Z,100323.72
2023-01-11T02:02:37.064Z,100317.41
2023-01-11T02:03:38.672Z,100313.44
2023-01-11T02:04:43.598Z,100318.75
2023-01-11T02:05:45.865Z,100319.38
2023-01-11T02:06:49.043Z,100315.09
2023-01-11T02:07:54.760Z,100305.78
2023-01-11T02:09:02.413Z,100309.09
2023-01-11T02:10:07.922Z,100303.38
2023-01-11T02:11:27.085Z,100298.16
2023-01-11T02:12:33.705Z,100296.00
2023-01-11T02:13:45.948Z,100308.94
2023-01-11T02:14:50.018Z,100302.69
2023-01-11T02:16:07.548Z,100279.88
2023-01-11T02:17:10.491Z,100292.72
2023-01-11T02:18:14.294Z,100293.84
2023-01-11T02:19:30.137Z,100291.25
2023-01-11T02:20:53.792Z,100287.63
2023-01-11T02:22:17.072Z,100296.19
2023-01-11T02:23:58.011Z,100292.72
2023-01-11T02:25:31.699Z,100284.09
2023-01-11T02:26:59.045Z,100287.94
2023-01-11T02:28:11.618Z,100281.91
2023-01-11T02:29:26.678Z,100274.75
2023-01-11T02:30:34.352Z,100277.63
2023-01-11T02:31:44.869Z,100271.84
2023-01-11T02:32:58.361Z,100271.03
2023-01-11T02:34:11.717Z,100265.78
2023-01-11T02:35:20.370Z,100275.88
2023-01-11T02:36:34.305Z,100260.91
2023-01-11T02:37:47.241Z,100255.81
2023-01-11T02:38:58.003Z,100269.00
2023-01-11T02:40:07.067Z,100265.22
2023-01-11T02:41:18.793Z,100265.53
2023-01-11T02:42:45.208Z,100256.97
2023-01-11T02:44:14.069Z,100265.22
2023-01-11T02:45:26.888Z,100257.63
2023-01-11T02:46:33.452Z,100271.84
2023-01-11T02:47:44.951Z,100267.66
2023-01-11T02:48:55.594Z,100273.00
2023-01-11T02:50:04.217Z,100275.94
2023-01-11T02:51:12.181Z,100275.88
2023-01-11T02:52:21.842Z,100275.34
2023-01-11T02:53:28.512Z,100285.44
2023-01-11T02:54:32.720Z,100274.97
2023-01-11T02:55:43.238Z,100276.25
2023-01-11T02:56:48.526Z,100274.91
2023-01-11T02:57:53.034Z,100280.50
2023-01-11T02:58:58.774Z,100278.69
2023-01-11T03:00:02.167Z,100280.06
2023-01-11T03:01:05.223Z,100272.09
2023-01-11T03:02:06.740Z,100275.13
2023-01-11T03:03:14.492Z,100277.72
2023-01-11T03:04:23.252Z,100280.78
2023-01-11T03:05:26.015Z,100285.06
2023-01-11T03:06:31.994Z,100279.72
2023-01-11T03:07:50.903Z,100273.78
2023-01-11T03:09:15.856Z,100273.66
2023-01-11T03:10:29.624Z,100272.09
2023-01-11T03:12:03.653Z,100272.03
2023-01-11T03:13:17.166Z,100271.44
2023-01-11T03:14:28.212Z,100264.88
2023-01-11T03:15:46.418Z,100269.13
2023-01-11T03:16:55.483Z,100263.13
2023-01-11T03:18:08.389Z,100265.13
2023-01-11T03:19:19.781Z,100269.56
2023-01-11T03:20:27.236Z,100261.81
2023-01-11T03:21:42.811Z,100257.66
2023-01-11T03:22:58.204Z,100260.47
2023-01-11T03:24:10.401Z,100262.47
2023-01-11T03:25:20.237Z,100258.47
2023-01-11T03:26:31.267Z,100243.66
2023-01-11T03:27:39.809Z,100249.28
2023-01-11T03:28:51.439Z,100241.97
2023-01-11T03:30:04.457Z,100247.22
2023-01-11T03:31:13.446Z,100246.09
2023-01-11T03:32:23.396Z,100235.72
2023-01-11T03:33:32.006Z,100234.69
2023-01-11T03:34:40.234Z,100240.09
2023-01-11T03:35:48.635Z,100237.00
2023-01-11T03:36:57.576Z,100236.19
2023-01-11T03:38:03.499Z,100232.06
2023-01-11T03:39:11.176Z,100238.69
2023-01-11T03:40:19.005Z,100242.34
2023-01-11T03:41:25.431Z,100238.75
2023-01-11T03:42:29.900Z,100234.47
2023-01-11T03:43:34.281Z,100240.78
2023-01-11T03:44:43.655Z,100231.06
2023-01-11T03:45:51.016Z,100227.38
2023-01-11T03:46:57.392Z,100217.47
2023-01-11T03:48:03.091Z,100216.22
2023-01-11T03:49:09.783Z,100220.03
2023-01-11T03:50:13.537Z,100215.47
2023-01-11T03:51:21.012Z,100212.28
2023-01-11T03:52:28.757Z,100218.38
2023-01-11T03:53:36.280Z,100212.69
2023-01-11T03:54:39.967Z,100200.47
2023-01-11T03:55:47.636Z,100209.25
2023-01-11T03:56:56.251Z,100213.59
2023-01-11T03:57:59.153Z,100205.03
2023-01-11T03:59:01.593Z,100201.38
2023-01-11T04:00:05.932Z,100203.94
2023-01-11T04:01:08.954Z,100185.63
2023-01-11T04:02:16.843Z,100200.97
2023-01-11T04:03:18.347Z,100201.19
2023-01-11T04:04:21.066Z,100205.78
2023-01-11T04:05:22.791Z,100199.97
2023-01-11T04:06:25.854Z,100199.34
2023-01-11T04:07:27.391Z,100197.00
2023-01-11T04:08:31.072Z,100195.50
2023-01-11T04:09:32.715Z,100193.25
2023-01-11T04:10:35.144Z,100194.16
2023-01-11T04:11:36.635Z,100194.16
2023-01-11T04:12:39.080Z,100189.25
2023-01-11T04:13:40.547Z,100188.84
2023-01-11T04:14:43.057Z,100185.13
2023-01-11T04:15:44.538Z,100192.38
2023-01-11T04:16:48.408Z,100199.38
2023-01-11T04:17:49.951Z,100193.91
2023-01-11T04:18:52.370Z,100181.88
2023-01-11T04:19:53.856Z,100202.00
2023-01-11T04:20:56.277Z,100190.19
2023-01-11T04:21:57.777Z,100189.94
2023-01-11T04:23:00.344Z,100197.50
2023-01-11T04:24:01.907Z,100194.97
2023-01-11T04:25:05.041Z,100194.50
2023-01-11T04:26:07.006Z,100179.78
2023-01-11T04:27:09.420Z,100187.06
2023-01-11T04:28:11.127Z,100180.63
2023-01-11T04:29:13.877Z,100182.09
2023-01-11T04:30:15.881Z,100185.91
2023-01-11T04:31:18.506Z,100183.47
2023-01-11T04:32:21.413Z,100183.13
2023-01-11T04:33:23.860Z,100180.31
2023-01-11T04:34:25.433Z,100172.50
2023-01-11T04:35:28.006Z,100176.34
2023-01-11T04:36:31.470Z,100174.47
2023-01-11T04:37:33.051Z,100172.69
2023-01-11T04:38:35.858Z,100171.47
2023-01-11T04:39:37.446Z,100168.47
2023-01-11T04:40:39.891Z,100175.06
2023-01-11T04:42:08.693Z,100182.50
2023-01-11T04:43:10.195Z,100185.47
2023-01-11T04:44:12.736Z,100182.47
2023-01-11T04:45:14.476Z,100177.22
2023-01-11T04:46:16.935Z,100180.50
2023-01-11T04:47:20.097Z,100179.72
2023-01-11T04:48:23.870Z,100182.91
2023-01-11T04:49:25.367Z,100178.56
2023-01-11T04:50:28.710Z,100174.19
2023-01-11T04:51:30.245Z,100174.69
2023-01-11T04:52:32.714Z,100170.81
2023-01-11T04:53:35.083Z,100174.34
2023-01-11T04:54:37.501Z,100169.72
2023-01-11T04:55:38.973Z,100167.56
2023-01-11T04:56:41.409Z,100163.63
2023-01-11T04:57:43.550Z,100136.75
2023-01-11T04:58:46.875Z,100155.00
2023-01-11T04:59:49.257Z,100149.50
2023-01-11T05:00:51.779Z,100160.72
2023-01-11T05:01:53.361Z,100156.34
2023-01-11T05:02:55.823Z,100155.56
2023-01-11T05:03:58.947Z,100153.25
2023-01-11T05:05:01.474Z,100151.44
2023-01-11T05:06:04.816Z,100141.84
2023-01-11T05:07:07.738Z,100143.53
2023-01-11T05:08:09.247Z,100149.47
2023-01-11T05:09:14.011Z,100153.41
2023-01-11T05:10:16.023Z,100148.03
2023-01-11T05:11:18.884Z,100145.69
2023-01-11T05:12:20.365Z,100141.78
2023-01-11T05:13:41.430Z,100145.66
2023-01-11T05:14:43.961Z,100143.00
2023-01-11T05:15:45.529Z,100141.72
2023-01-11T05:16:48.053Z,100133.63
2023-01-11T05:17:49.591Z,100135.63
2023-01-11T05:18:54.023Z,100136.66
2023-01-11T05:19:57.012Z,100138.75
2023-01-11T05:20:59.473Z,100142.84
2023-01-11T05:22:01.055Z,100127.41
2023-01-11T05:23:03.541Z,100141.78
2023-01-11T05:24:07.237Z,100144.78
2023-01-11T05:25:10.145Z,100135.34
2023-01-11T05:26:14.608Z,100134.88
2023-01-11T05:27:17.051Z,100138.44
2023-01-11T05:28:19.977Z,100139.06
2023-01-11T05:29:22.707Z,100132.31
2023-01-11T05:30:24.302Z,100137.50
2023-01-11T05:31:27.414Z,100138.78
2023-01-11T05:32:29.483Z,100132.03
2023-01-11T05:33:32.108Z,100123.34
2023-01-11T05:34:34.808Z,100119.03
2023-01-11T05:35:37.622Z,100111.97
2023-01-11T05:36:40.291Z,100119.03
2023-01-11T05:37:41.809Z,100126.66
2023-01-11T05:38:46.616Z,100135.50
2023-01-11T05:39:48.162Z,100125.25
2023-01-11T05:40:55.160Z,100123.63
2023-01-11T05:41:56.705Z,100113.44
2023-01-11T05:42:59.148Z,100118.31
2023-01-11T05:44:19.667Z,100115.47
2023-01-11T05:45:30.046Z,100115.47
2023-01-11T05:46:33.526Z,100105.50
2023-01-11T05:47:35.010Z,100102.81
2023-01-11T05:48:37.466Z,100098.41
2023-01-11T05:49:39.892Z,100103.56
2023-01-11T05:50:43.796Z,100101.91
2023-01-11T05:51:45.358Z,100098.66
2023-01-11T05:52:47.853Z,100095.13
2023-01-11T05:53:49.413Z,100096.69
2023-01-11T05:54:51.860Z,100096.19
2023-01-11T05:55:53.797Z,100097.78
2023-01-11T05:56:57.622Z,100095.59
2023-01-11T05:57:59.254Z,100099.78
2023-01-11T05:59:03.840Z,100101.50
2023-01-11T06:00:06.465Z,100104.56
2023-01-11T06:01:09.244Z,100096.09
2023-01-11T06:02:15.458Z,100105.81
2023-01-11T06:03:17.222Z,100091.50
2023-01-11T06:04:19.731Z,100105.38
2023-01-11T06:05:21.254Z,100092.66
2023-01-11T06:06:25.098Z,100099.34
2023-01-11T06:07:27.624Z,100103.50
2023-01-11T06:08:29.127Z,100101.59
2023-01-11T06:09:31.587Z,100101.00
2023-01-11T06:10:33.968Z,100116.22
2023-01-11T06:11:36.587Z,100100.25
2023-01-11T06:12:38.157Z,100108.03
2023-01-11T06:13:40.673Z,100100.63
2023-01-11T06:14:42.178Z,100108.28
2023-01-11T06:15:44.992Z,100109.69
2023-01-11T06:16:47.511Z,100118.31
2023-01-11T06:17:49.049Z,100122.00
2023-01-11T06:18:53.492Z,100120.53
2023-01-11T06:19:55.020Z,100124.59
2023-01-11T06:20:58.136Z,100123.53
2023-01-11T06:22:04.905Z,100127.06
2023-01-11T06:23:06.493Z,100132.44
2023-01-11T06:24:12.267Z,100122.19
2023-01-11T06:25:14.359Z,100107.53
2023-01-11T06:26:22.044Z,100129.22
2023-01-11T06:27:23.593Z,100132.59
2023-01-11T06:28:26.065Z,100140.19
2023-01-11T06:29:27.624Z,100130.44
2023-01-11T06:30:30.331Z,100112.50
2023-01-11T06:31:31.871Z,100105.44
2023-01-11T06:32:34.366Z,100097.28
2023-01-11T06:33:36.451Z,100098.25
2023-01-11T06:34:38.970Z,100096.63
2023-01-11T06:35:41.837Z,100097.13
2023-01-11T06:36:44.251Z,100091.13
2023-01-11T06:37:47.662Z,100101.50
2023-01-11T06:38:50.140Z,100096.81
2023-01-11T06:39:51.620Z,100102.00
2023-01-11T06:40:55.464Z,100101.00
2023-01-11T06:41:56.973Z,100099.94
2023-01-11T06:42:59.635Z,100103.81
2023-01-11T06:44:01.128Z,100100.53
2023-01-11T06:45:03.575Z,100105.72
2023-01-11T06:46:07.984Z,100103.59
2023-01-11T06:47:10.476Z,100091.06
2023-01-11T06:48:12.013Z,100090.16
2023-01-11T06:49:14.709Z,100088.00
2023-01-11T06:50:16.768Z,100101.56
2023-01-11T06:51:19.241Z,100104.19
2023-01-11T06:52:20.804Z,100092.25
2023-01-11T06:53:28.416Z,100092.88
2023-01-11T06:54:31.459Z,100092.56
2023-01-11T06:55:32.976Z,100074.81
2023-01-11T06:56:35.762Z,100097.19
2023-01-11T06:57:37.337Z,100089.59
2023-01-11T06:58:39.826Z,100085.84
2023-01-11T06:59:43.246Z,100098.59
2023-01-11T07:00:46.105Z,100087.53
2023-01-11T07:01:47.797Z,100088.03
2023-01-11T07:02:50.696Z,100096.22
2023-01-11T07:03:52.206Z,100101.94
2023-01-11T07:04:54.840Z,100101.00
2023-01-11T07:05:58.475Z,100079.81
2023-01-11T07:06:59.942Z,100077.34
2023-01-11T07:08:02.716Z,100077.06
2023-01-11T07:09:06.545Z,100092.88
2023-01-11T07:10:12.115Z,100091.06
2023-01-11T07:11:14.548Z,100093.22
2023-01-11T07:12:16.073Z,100087.00
2023-01-11T07:13:20.523Z,100080.75
2023-01-11T07:14:22.129Z,100088.66
2023-01-11T07:15:24.638Z,100093.56
2023-01-11T07:16:27.125Z,100068.06
2023-01-11T07:17:28.803Z,100082.13
2023-01-11T07:18:31.795Z,100075.34
2023-01-11T07:19:33.310Z,100075.06
2023-01-11T07:20:38.398Z,100071.22
2023-01-11T07:21:39.878Z,100065.03
2023-01-11T07:22:42.625Z,100069.91
2023-01-11T07:23:45.997Z,100066.94
2023-01-11T07:24:50.080Z,100067.75
2023-01-11T07:25:51.802Z,100076.22
2023-01-11T07:26:56.280Z,100071.31
2023-01-11T07:27:58.893Z,100075.59
2023-01-11T07:29:01.382Z,100071.53
2023-01-11T07:30:03.069Z,100076.97
2023-01-11T07:31:05.733Z,100066.66
2023-01-11T07:32:10.711Z,100072.88
2023-01-11T07:33:13.405Z,100074.28
2023-01-11T07:34:15.479Z,100073.47
2023-01-11T07:35:19.039Z,100070.00
2023-01-11T07:36:21.548Z,100073.78
2023-01-11T07:37:28.605Z,100061.28
2023-01-11T07:38:31.934Z,100065.97
2023-01-11T07:39:43.313Z,100080.84
2023-01-11T07:40:48.185Z,100068.56
2023-01-11T07:42:08.659Z,100075.38
2023-01-11T07:43:15.296Z,100079.44
2023-01-11T07:44:17.639Z,100070.22
2023-01-11T07:45:20.520Z,100075.94
2023-01-11T07:46:23.287Z,100073.50
2023-01-11T07:47:24.851Z,100077.59
2023-01-11T07:48:27.829Z,100074.66
2023-01-11T07:49:29.662Z,100061.00
2023-01-11T07:50:32.605Z,100075.44
2023-01-11T07:51:35.076Z,100081.19
2023-01-11T07:52:38.667Z,100079.25
2023-01-11T07:53:41.195Z,100076.84
2023-01-11T07:54:42.738Z,100084.72
2023-01-11T07:55:45.525Z,100078.47
2023-01-11T07:56:49.341Z,100085.25
2023-01-11T07:57:51.280Z,100087.19
2023-01-11T07:58:53.711Z,100089.34
2023-01-11T07:59:55.244Z,100086.09
2023-01-11T08:01:00.227Z,100085.56
2023-01-11T08:02:01.723Z,100069.81
2023-01-11T08:03:04.711Z,100080.13
2023-01-11T08:04:08.432Z,100093.72
2023-01-11T08:05:10.281Z,100093.16
2023-01-11T08:06:14.460Z,100081.47
2023-01-11T08:07:18.095Z,100087.44
2023-01-11T08:08:21.037Z,100080.41
2023-01-11T08:09:22.548Z,100106.22
2023-01-11T08:10:25.656Z,100073.34
2023-01-11T08:12:00.687Z,100084.22
2023-01-11T08:13:22.389Z,100079.06
2023-01-11T08:14:41.963Z,100089.91
2023-01-11T08:15:46.752Z,100089.94
2023-01-11T08:16:48.319Z,100083.41
2023-01-11T08:17:51.303Z,100085.03
2023-01-11T08:18:52.910Z,100083.41
2023-01-11T08:19:56.190Z,100078.53
2023-01-11T08:20:58.762Z,100088.31
2023-01-11T08:22:00.325Z,100071.44
2023-01-11T08:23:04.893Z,100086.94
2023-01-11T08:24:06.961Z,100083.16
2023-01-11T08:25:11.176Z,100081.50
2023-01-11T08:26:17.091Z,100082.31
2023-01-11T08:27:19.529Z,100092.91
2023-01-11T08:28:23.318Z,100082.31
2023-01-11T08:29:25.645Z,100075.81
2023-01-11T08:30:28.127Z,100077.19
2023-01-11T08:31:31.051Z,100070.66
2023-01-11T08:32:32.615Z,100076.09
2023-01-11T08:33:35.039Z,100076.34
2023-01-11T08:34:36.793Z,100074.72
2023-01-11T08:35:40.396Z,100081.00
2023-01-11T08:36:41.952Z,100059.00
2023-01-11T08:37:44.562Z,100072.84
2023-01-11T08:38:46.031Z,100069.28
2023-01-11T08:39:50.674Z,100063.31
2023-01-11T08:40:53.110Z,100052.75
2023-01-11T08:41:54.734Z,100060.91
2023-01-11T08:42:57.686Z,100053.56
2023-01-11T08:44:00.669Z,100061.41
2023-01-11T08:45:03.288Z,100060.06
2023-01-11T08:46:05.091Z,100059.28
2023-01-11T08:47:08.009Z,100053.84
2023-01-11T08:48:12.173Z,100057.34
2023-01-11T08:49:14.742Z,100058.72
2023-01-11T08:50:18.896Z,100054.38
2023-01-11T08:51:23.012Z,100068.50
2023-01-11T08:52:37.512Z,100062.50
2023-01-11T08:53:39.159Z,100059.53
2023-01-11T08:54:42.590Z,100056.28
2023-01-11T08:55:49.151Z,100054.63
2023-01-11T08:56:50.741Z,100056.53
2023-01-11T08:57:53.270Z,100040.25
2023-01-11T08:58:56.057Z,100064.94
2023-01-11T09:00:00.192Z,100061.69
2023-01-11T09:01:09.009Z,100064.13
2023-01-11T09:02:13.511Z,100062.53
2023-01-11T09:03:15.239Z,100072.00
2023-01-11T09:04:24.581Z,100056.53
2023-01-11T09:05:27.496Z,100066.03
2023-01-11T09:06:29.186Z,100062.81
2023-01-11T09:07:31.782Z,100057.63
2023-01-11T09:08:33.346Z,100059.81
2023-01-11T09:09:36.054Z,100057.38
2023-01-11T09:10:38.063Z,100056.28
2023-01-11T09:11:56.937Z,100058.97
2023-01-11T09:13:00.633Z,100057.63
2023-01-11T09:14:02.144Z,100056.56
2023-01-11T09:15:07.090Z,100044.88
2023-01-11T09:16:08.618Z,100044.84
2023-01-11T09:17:11.158Z,100050.81
2023-01-11T09:18:12.711Z,100059.75
2023-01-11T09:19:15.448Z,100042.91
2023-01-11T09:20:19.444Z,100053.22
2023-01-11T09:21:22.501Z,100058.41
2023-01-11T09:22:25.105Z,100041.00
2023-01-11T09:23:28.661Z,100049.69
2023-01-11T09:24:32.075Z,100067.53
2023-01-11T09:25:38.176Z,100061.78
2023-01-11T09:26:41.771Z,100015.41
2023-01-11T09:27:45.189Z,100064.22
2023-01-11T09:28:46.708Z,100065.78
2023-01-11T09:29:49.246Z,100052.75
2023-01-11T09:30:53.076Z,100064.97
2023-01-11T09:31:55.559Z,100063.59
2023-01-11T09:32:58.227Z,100063.88
2023-01-11T09:33:59.753Z,100069.38
2023-01-11T09:35:03.618Z,100060.09
2023-01-11T09:36:06.124Z,100062.03
2023-01-11T09:37:08.632Z,100054.41
2023-01-11T09:38:11.151Z,100061.94
2023-01-11T09:39:16.989Z,100060.88
2023-01-11T09:40:22.695Z,100059.78
2023-01-11T09:41:46.497Z,100051.69
2023-01-11T09:42:52.710Z,100046.19
2023-01-11T09:44:02.232Z,100039.34
2023-01-11T09:45:14.233Z,100043.34
2023-01-11T09:46:19.873Z,100018.63
2023-01-11T09:47:33.723Z,100044.03
2023-01-11T09:48:43.775Z,100036.31
2023-01-11T09:49:54.530Z,100040.63
2023-01-11T09:50:57.736Z,100031.66
2023-01-11T09:52:11.409Z,100039.13
2023-01-11T09:53:19.560Z,100040.34
2023-01-11T09:54:27.470Z,100039.19
2023-01-11T09:55:34.679Z,100034.50
2023-01-11T09:56:44.097Z,100030.06
2023-01-11T09:58:03.920Z,100024.34
2023-01-11T09:59:17.739Z,100029.25
2023-01-11T10:00:28.854Z,100016.91
2023-01-11T10:01:39.585Z,100018.72
2023-01-11T10:02:49.339Z,100017.38
2023-01-11T10:04:12.896Z,100018.44
2023-01-11T10:05:51.431Z,100012.41
2023-01-11T10:07:12.915Z,100021.34
2023-01-11T10:18:28.494Z,100018.78
2023-01-11T10:18:37.854Z,100012.59
2023-01-11T10:18:40.395Z,100018.84
2023-01-11T10:19:37.730Z,100016.72
2023-01-11T10:20:47.503Z,99999.41
2023-01-11T10:21:55.649Z,100005.84
2023-01-11T10:23:04.963Z,100008.50
2023-01-11T10:24:14.771Z,100014.19
2023-01-11T10:25:24.798Z,100007.59
2023-01-11T10:26:36.004Z,100004.09
2023-01-11T10:27:40.484Z,100004.16
2023-01-11T10:29:07.365Z,99974.75
2023-01-11T10:30:33.513Z,100000.91
2023-01-11T10:31:49.271Z,99981.72
2023-01-11T10:33:10.136Z,99997.84
2023-01-11T10:34:38.644Z,99990.97
2023-01-11T10:36:12.963Z,99985.97
2023-01-11T10:37:44.714Z,99991.31
2023-01-11T10:39:14.485Z,99990.59
2023-01-11T10:40:42.911Z,99989.03
2023-01-11T10:42:04.134Z,99991.44
2023-01-11T10:43:20.684Z,99996.31
2023-01-11T10:44:38.450Z,99991.78
2023-01-11T10:45:47.942Z,99977.47
2023-01-11T10:47:00.113Z,99998.88
2023-01-11T10:48:17.692Z,99994.56
2023-01-11T10:49:38.846Z,99987.78
2023-01-11T10:50:57.383Z,99986.97
2023-01-11T10:52:07.965Z,99983.31
2023-01-11T10:53:21.232Z,99988.84
2023-01-11T10:54:36.063Z,99993.94
2023-01-11T10:55:51.671Z,99984.38
2023-01-11T10:57:09.330Z,99978.84
2023-01-11T10:58:25.197Z,99980.34
2023-01-11T10:59:50.376Z,99976.22
2023-01-11T11:01:09.115Z,99986.75
2023-01-11T11:02:30.805Z,99974.59
2023-01-11T11:04:09.883Z,99978.94
2023-01-11T11:05:29.253Z,99990.16
2023-01-11T11:06:40.718Z,99983.31
2023-01-11T11:07:55.210Z,99980.44
2023-01-11T11:09:06.692Z,99981.94
2023-01-11T11:10:21.852Z,99978.31
2023-01-11T11:11:32.979Z,99976.50
2023-01-11T11:12:38.936Z,99972.44
2023-01-11T11:13:50.756Z,99972.88
2023-01-11T11:15:04.287Z,99978.59
2023-01-11T11:16:19.809Z,99972.59
2023-01-11T11:17:26.702Z,99981.31
2023-01-11T11:18:29.347Z,99978.47
2023-01-11T11:19:33.193Z,99972.50
2023-01-11T11:20:35.798Z,99983.88
2023-01-11T11:21:40.325Z,99980.41
2023-01-11T11:22:44.925Z,99984.84
2023-01-11T11:23:54.418Z,99977.91
2023-01-11T11:25:02.634Z,99979.34
2023-01-11T11:26:06.737Z,99971.91
2023-01-11T11:27:19.083Z,99970.41
2023-01-11T11:28:28.937Z,99976.31
2023-01-11T11:29:31.537Z,99969.59
2023-01-11T11:30:38.161Z,99971.91
2023-01-11T11:31:43.821Z,99960.03
2023-01-11T11:32:55.397Z,99968.25
2023-01-11T11:33:58.553Z,99963.78
2023-01-11T11:35:02.790Z,99965.88
2023-01-11T11:36:08.890Z,99966.59
2023-01-11T11:37:21.609Z,99962.06
2023-01-11T11:38:26.228Z,99965.88
2023-01-11T11:39:30.240Z,99954.88
2023-01-11T11:40:35.546Z,99954.69
2023-01-11T11:41:48.043Z,99958.81
2023-01-11T11:42:50.605Z,99958.28
2023-01-11T11:43:53.383Z,99956.09
2023-01-11T11:45:14.700Z,99951.06
2023-01-11T11:46:25.275Z,99956.03
2023-01-11T11:47:26.887Z,99953.63
2023-01-11T11:48:31.432Z,99950.13
2023-01-11T11:49:34.173Z,99951.03
2023-01-11T11:50:46.149Z,99955.47
2023-01-11T11:51:48.445Z,99944.91
2023-01-11T11:52:55.521Z,99949.94
2023-01-11T11:53:58.405Z,99954.88
2023-01-11T11:55:00.037Z,99951.25
2023-01-11T11:56:08.779Z,99952.97
2023-01-11T11:57:18.311Z,99955.81
2023-01-11T11:58:23.252Z,99949.75
2023-01-11T11:59:30.020Z,99945.28
2023-01-11T12:00:40.066Z,99942.91
2023-01-11T12:01:47.187Z,99948.91
2023-01-11T12:02:52.003Z,99954.22
2023-01-11T12:03:57.502Z,99952.13
2023-01-11T12:05:05.341Z,99937.28
2023-01-11T12:06:09.322Z,99949.53
2023-01-11T12:07:17.715Z,99939.75
2023-01-11T12:08:21.611Z,99947.66
2023-01-11T12:09:30.872Z,99941.22
2023-01-11T12:10:33.733Z,99937.97
2023-01-11T12:11:38.699Z,99945.47
2023-01-11T12:12:51.920Z,99948.28
2023-01-11T12:14:01.848Z,99938.94
2023-01-11T12:15:19.278Z,99946.28
2023-01-11T12:16:23.799Z,99938.34
2023-01-11T12:17:26.863Z,99939.91
2023-01-11T12:18:33.358Z,99937.81
2023-01-11T12:19:41.267Z,99940.25
2023-01-11T12:20:44.778Z,99940.31
2023-01-11T12:21:48.613Z,99952.31
2023-01-11T12:22:53.270Z,99943.16
2023-01-11T12:24:10.914Z,99947.56
2023-01-11T12:25:22.556Z,99946.63
2023-01-11T12:26:29.132Z,99942.88
2023-01-11T12:27:42.686Z,99939.31
2023-01-11T12:29:23.955Z,99946.97
2023-01-11T12:30:30.256Z,99945.13
2023-01-11T12:31:40.289Z,99948.97
2023-01-11T12:33:08.698Z,99942.41
2023-01-11T12:34:28.588Z,99950.00
2023-01-11T12:35:36.904Z,99944.28
2023-01-11T12:36:49.087Z,99946.88
2023-01-11T12:38:09.592Z,99945.78
2023-01-11T12:39:20.628Z,99948.25
2023-01-11T12:40:31.482Z,99949.75
2023-01-11T12:41:58.723Z,99956.53
2023-01-11T12:43:16.467Z,99944.94
2023-01-11T12:44:31.349Z,99943.66
2023-01-11T12:45:40.966Z,99948.59
2023-01-11T12:46:58.880Z,99956.16
2023-01-11T12:48:18.986Z,99945.88
2023-01-11T12:49:37.863Z,99946.91